sensor_id;sensor_type;location;lat;lon;timestamp;temperature;humidity
35960;DHT22;22043;50.970;7.192;2022-07-11T00:01:35;16.90;99.90
35960;DHT22;22043;50.970;7.192;2022-07-11T00:04:01;16.90;99.90
35960;DHT22;22043;50.970;7.192;2022-07-11T00:06:26;16.90;99.90
35960;DHT22;22043;50.970;7.192;2022-07-11T00:08:52;16.90;99.90
35960;DHT22;22043;50.970;7.192;2022-07-11T00:11:18;16.90;99.90
35960;DHT22;22043;50.970;7.192;2022-07-11T00:13:43;16.90;99.90
35960;DHT22;22043;50.970;7.192;2022-07-11T00:16:09;16.90;99.90
35960;DHT22;22043;50.970;7.192;2022-07-11T00:18:35;16.90;99.90
35960;DHT22;22043;50.970;7.192;2022-07-11T00:21:00;16.80;99.90
35960;DHT22;22043;50.970;7.192;2022-07-11T00:23:26;16.90;99.90
35960;DHT22;22043;50.970;7.192;2022-07-11T00:25:52;16.80;99.90
35960;DHT22;22043;50.970;7.192;2022-07-11T00:28:17;16.90;99.90
35960;DHT22;22043;50.970;7.192;2022-07-11T00:30:44;16.90;99.90
35960;DHT22;22043;50.970;7.192;2022-07-11T00:33:10;16.90;99.90
35960;DHT22;22043;50.970;7.192;2022-07-11T00:35:36;16.90;99.90
35960;DHT22;22043;50.970;7.192;2022-07-11T00:38:02;16.90;99.90
35960;DHT22;22043;50.970;7.192;2022-07-11T00:40:28;16.90;99.90
35960;DHT22;22043;50.970;7.192;2022-07-11T00:42:53;16.90;99.90
35960;DHT22;22043;50.970;7.192;2022-07-11T00:45:19;16.90;99.90
35960;DHT22;22043;50.970;7.192;2022-07-11T00:47:45;16.90;99.90
35960;DHT22;22043;50.970;7.192;2022-07-11T00:50:11;16.90;99.90
35960;DHT22;22043;50.970;7.192;2022-07-11T00:52:37;16.90;99.90
35960;DHT22;22043;50.970;7.192;2022-07-11T00:55:03;16.90;99.90
35960;DHT22;22043;50.970;7.192;2022-07-11T00:57:31;16.90;99.90
35960;DHT22;22043;50.970;7.192;2022-07-11T00:59:57;16.90;99.90
35960;DHT22;22043;50.970;7.192;2022-07-11T01:02:23;16.90;99.90
35960;DHT22;22043;50.970;7.192;2022-07-11T01:04:50;16.90;99.90
35960;DHT22;22043;50.970;7.192;2022-07-11T01:07:15;16.90;99.90
35960;DHT22;22043;50.970;7.192;2022-07-11T01:09:41;16.90;99.90
35960;DHT22;22043;50.970;7.192;2022-07-11T01:12:07;16.80;99.90
35960;DHT22;22043;50.970;7.192;2022-07-11T01:14:34;16.80;99.90
35960;DHT22;22043;50.970;7.192;2022-07-11T01:17:00;16.80;99.90
35960;DHT22;22043;50.970;7.192;2022-07-11T01:19:25;16.80;99.90
35960;DHT22;22043;50.970;7.192;2022-07-11T01:21:52;16.80;99.90
35960;DHT22;22043;50.970;7.192;2022-07-11T01:24:22;16.80;99.90
35960;DHT22;22043;50.970;7.192;2022-07-11T01:26:48;16.80;99.90
35960;DHT22;22043;50.970;7.192;2022-07-11T01:29:15;16.80;99.90
35960;DHT22;22043;50.970;7.192;2022-07-11T01:31:44;16.80;99.90
35960;DHT22;22043;50.970;7.192;2022-07-11T01:34:10;16.70;99.90
35960;DHT22;22043;50.970;7.192;2022-07-11T01:36:36;16.70;99.90
35960;DHT22;22043;50.970;7.192;2022-07-11T01:39:03;16.70;99.90
35960;DHT22;22043;50.970;7.192;2022-07-11T01:41:29;16.70;99.90
35960;DHT22;22043;50.970;7.192;2022-07-11T01:43:54;16.70;99.90
35960;DHT22;22043;50.970;7.192;2022-07-11T01:46:20;16.80;99.90
35960;DHT22;22043;50.970;7.192;2022-07-11T01:48:47;16.70;99.90
35960;DHT22;22043;50.970;7.192;2022-07-11T01:51:13;16.70;99.90
35960;DHT22;22043;50.970;7.192;2022-07-11T01:53:39;16.70;99.90
35960;DHT22;22043;50.970;7.192;2022-07-11T01:56:05;16.70;99.90
35960;DHT22;22043;50.970;7.192;2022-07-11T01:58:31;16.70;99.90
35960;DHT22;22043;50.970;7.192;2022-07-11T02:00:57;16.60;99.90
35960;DHT22;22043;50.970;7.192;2022-07-11T02:03:23;16.60;99.90
35960;DHT22;22043;50.970;7.192;2022-07-11T02:05:49;16.60;99.90
35960;DHT22;22043;50.970;7.192;2022-07-11T02:08:15;16.60;99.90
35960;DHT22;22043;50.970;7.192;2022-07-11T02:10:43;16.60;99.90
35960;DHT22;22043;50.970;7.192;2022-07-11T02:13:10;16.60;99.90
35960;DHT22;22043;50.970;7.192;2022-07-11T02:15:36;16.60;99.90
35960;DHT22;22043;50.970;7.192;2022-07-11T02:18:02;16.60;99.90
35960;DHT22;22043;50.970;7.192;2022-07-11T02:20:28;16.50;99.90
35960;DHT22;22043;50.970;7.192;2022-07-11T02:22:54;16.50;99.90
35960;DHT22;22043;50.970;7.192;2022-07-11T02:25:19;16.50;99.90
35960;DHT22;22043;50.970;7.192;2022-07-11T02:27:46;16.50;99.90
35960;DHT22;22043;50.970;7.192;2022-07-11T02:30:12;16.50;99.90
35960;DHT22;22043;50.970;7.192;2022-07-11T02:32:38;16.50;99.90
35960;DHT22;22043;50.970;7.192;2022-07-11T02:35:05;16.50;99.90
35960;DHT22;22043;50.970;7.192;2022-07-11T02:37:31;16.40;99.90
35960;DHT22;22043;50.970;7.192;2022-07-11T02:39:57;16.40;99.90
35960;DHT22;22043;50.970;7.192;2022-07-11T02:42:22;16.40;99.90
35960;DHT22;22043;50.970;7.192;2022-07-11T02:44:49;16.40;99.90
35960;DHT22;22043;50.970;7.192;2022-07-11T02:47:14;16.40;99.90
35960;DHT22;22043;50.970;7.192;2022-07-11T02:49:40;16.40;99.90
35960;DHT22;22043;50.970;7.192;2022-07-11T02:52:06;16.30;99.90
35960;DHT22;22043;50.970;7.192;2022-07-11T02:54:32;16.30;99.90
35960;DHT22;22043;50.970;7.192;2022-07-11T02:56:57;16.30;99.90
35960;DHT22;22043;50.970;7.192;2022-07-11T02:59:23;16.30;99.90
35960;DHT22;22043;50.970;7.192;2022-07-11T03:01:50;16.20;99.90
35960;DHT22;22043;50.970;7.192;2022-07-11T03:04:16;16.20;99.90
35960;DHT22;22043;50.970;7.192;2022-07-11T03:06:42;16.20;99.90
35960;DHT22;22043;50.970;7.192;2022-07-11T03:09:08;16.20;99.90
35960;DHT22;22043;50.970;7.192;2022-07-11T03:11:34;16.20;99.90
35960;DHT22;22043;50.970;7.192;2022-07-11T03:14:00;16.20;99.90
35960;DHT22;22043;50.970;7.192;2022-07-11T03:16:29;16.20;99.90
35960;DHT22;22043;50.970;7.192;2022-07-11T03:18:55;16.20;99.90
35960;DHT22;22043;50.970;7.192;2022-07-11T03:21:21;16.20;99.90
35960;DHT22;22043;50.970;7.192;2022-07-11T03:23:48;16.20;99.90
35960;DHT22;22043;50.970;7.192;2022-07-11T03:26:16;16.20;99.90
35960;DHT22;22043;50.970;7.192;2022-07-11T03:28:41;16.20;99.90
35960;DHT22;22043;50.970;7.192;2022-07-11T03:31:07;16.20;99.90
35960;DHT22;22043;50.970;7.192;2022-07-11T03:33:33;16.20;99.90
35960;DHT22;22043;50.970;7.192;2022-07-11T03:35:59;16.20;99.90
35960;DHT22;22043;50.970;7.192;2022-07-11T03:38:25;16.20;99.90
35960;DHT22;22043;50.970;7.192;2022-07-11T03:40:50;16.20;99.90
35960;DHT22;22043;50.970;7.192;2022-07-11T03:43:16;16.20;99.90
35960;DHT22;22043;50.970;7.192;2022-07-11T03:45:42;16.20;99.90
35960;DHT22;22043;50.970;7.192;2022-07-11T03:48:08;16.20;99.90
35960;DHT22;22043;50.970;7.192;2022-07-11T03:50:34;16.30;99.90
35960;DHT22;22043;50.970;7.192;2022-07-11T03:53:01;16.30;99.90
35960;DHT22;22043;50.970;7.192;2022-07-11T03:55:28;16.30;99.90
35960;DHT22;22043;50.970;7.192;2022-07-11T03:57:54;16.30;99.90
35960;DHT22;22043;50.970;7.192;2022-07-11T04:00:20;16.30;99.90
35960;DHT22;22043;50.970;7.192;2022-07-11T04:02:47;16.30;99.90
35960;DHT22;22043;50.970;7.192;2022-07-11T04:05:13;16.30;99.90
35960;DHT22;22043;50.970;7.192;2022-07-11T04:07:39;16.30;99.90
35960;DHT22;22043;50.970;7.192;2022-07-11T04:10:05;16.30;99.90
35960;DHT22;22043;50.970;7.192;2022-07-11T04:12:32;16.30;99.90
35960;DHT22;22043;50.970;7.192;2022-07-11T04:14:58;16.30;99.90
35960;DHT22;22043;50.970;7.192;2022-07-11T04:17:23;16.40;99.90
35960;DHT22;22043;50.970;7.192;2022-07-11T04:19:49;16.40;99.90
35960;DHT22;22043;50.970;7.192;2022-07-11T04:22:16;16.40;99.90
35960;DHT22;22043;50.970;7.192;2022-07-11T04:24:41;16.40;99.90
35960;DHT22;22043;50.970;7.192;2022-07-11T04:27:07;16.40;99.90
35960;DHT22;22043;50.970;7.192;2022-07-11T04:29:33;16.40;99.90
35960;DHT22;22043;50.970;7.192;2022-07-11T04:31:59;16.40;99.90
35960;DHT22;22043;50.970;7.192;2022-07-11T04:34:24;16.40;99.90
35960;DHT22;22043;50.970;7.192;2022-07-11T04:36:50;16.50;99.90
35960;DHT22;22043;50.970;7.192;2022-07-11T04:39:16;16.50;99.90
35960;DHT22;22043;50.970;7.192;2022-07-11T04:41:41;16.50;99.90
35960;DHT22;22043;50.970;7.192;2022-07-11T04:44:07;16.50;99.90
35960;DHT22;22043;50.970;7.192;2022-07-11T04:46:33;16.60;99.90
35960;DHT22;22043;50.970;7.192;2022-07-11T04:48:58;16.50;99.90
35960;DHT22;22043;50.970;7.192;2022-07-11T04:51:24;16.60;99.90
35960;DHT22;22043;50.970;7.192;2022-07-11T04:53:51;16.60;99.90
35960;DHT22;22043;50.970;7.192;2022-07-11T04:56:16;16.50;99.90
35960;DHT22;22043;50.970;7.192;2022-07-11T04:58:42;16.50;99.90
35960;DHT22;22043;50.970;7.192;2022-07-11T05:01:08;16.50;99.90
35960;DHT22;22043;50.970;7.192;2022-07-11T05:03:34;16.50;99.90
35960;DHT22;22043;50.970;7.192;2022-07-11T05:05:59;16.40;99.90
35960;DHT22;22043;50.970;7.192;2022-07-11T05:08:25;16.50;99.90
35960;DHT22;22043;50.970;7.192;2022-07-11T05:10:51;16.50;99.90
35960;DHT22;22043;50.970;7.192;2022-07-11T05:13:16;16.50;99.90
35960;DHT22;22043;50.970;7.192;2022-07-11T05:15:42;16.50;99.90
35960;DHT22;22043;50.970;7.192;2022-07-11T05:18:10;16.50;99.90
35960;DHT22;22043;50.970;7.192;2022-07-11T05:20:35;16.60;99.90
35960;DHT22;22043;50.970;7.192;2022-07-11T05:23:01;16.60;99.90
35960;DHT22;22043;50.970;7.192;2022-07-11T05:25:27;16.70;99.90
35960;DHT22;22043;50.970;7.192;2022-07-11T05:27:52;16.70;99.90
35960;DHT22;22043;50.970;7.192;2022-07-11T05:30:18;16.60;99.90
35960;DHT22;22043;50.970;7.192;2022-07-11T05:32:44;16.70;99.90
35960;DHT22;22043;50.970;7.192;2022-07-11T05:35:10;16.70;99.90
35960;DHT22;22043;50.970;7.192;2022-07-11T05:37:35;16.80;99.90
35960;DHT22;22043;50.970;7.192;2022-07-11T05:40:01;16.80;99.90
35960;DHT22;22043;50.970;7.192;2022-07-11T05:42:27;16.80;99.90
35960;DHT22;22043;50.970;7.192;2022-07-11T05:44:54;16.80;99.90
35960;DHT22;22043;50.970;7.192;2022-07-11T05:47:20;16.80;99.90
35960;DHT22;22043;50.970;7.192;2022-07-11T05:49:46;16.80;99.90
35960;DHT22;22043;50.970;7.192;2022-07-11T05:52:11;16.80;99.90
35960;DHT22;22043;50.970;7.192;2022-07-11T05:54:37;16.80;99.90
35960;DHT22;22043;50.970;7.192;2022-07-11T05:57:03;16.90;99.90
35960;DHT22;22043;50.970;7.192;2022-07-11T05:59:29;17.00;99.90
35960;DHT22;22043;50.970;7.192;2022-07-11T06:01:55;17.00;99.90
35960;DHT22;22043;50.970;7.192;2022-07-11T06:04:21;17.00;99.90
35960;DHT22;22043;50.970;7.192;2022-07-11T06:06:47;17.10;99.90
35960;DHT22;22043;50.970;7.192;2022-07-11T06:09:13;17.10;99.90
35960;DHT22;22043;50.970;7.192;2022-07-11T06:11:39;17.10;99.90
35960;DHT22;22043;50.970;7.192;2022-07-11T06:14:05;17.10;99.90
35960;DHT22;22043;50.970;7.192;2022-07-11T06:16:31;17.20;99.90
35960;DHT22;22043;50.970;7.192;2022-07-11T06:18:57;17.10;99.90
35960;DHT22;22043;50.970;7.192;2022-07-11T06:21:24;17.20;99.90
35960;DHT22;22043;50.970;7.192;2022-07-11T06:23:50;17.20;99.90
35960;DHT22;22043;50.970;7.192;2022-07-11T06:26:16;17.20;99.90
35960;DHT22;22043;50.970;7.192;2022-07-11T06:28:42;17.20;99.90
35960;DHT22;22043;50.970;7.192;2022-07-11T06:31:08;17.20;99.90
35960;DHT22;22043;50.970;7.192;2022-07-11T06:33:34;17.20;99.90
35960;DHT22;22043;50.970;7.192;2022-07-11T06:36:03;17.20;99.90
35960;DHT22;22043;50.970;7.192;2022-07-11T06:38:30;17.20;99.90
35960;DHT22;22043;50.970;7.192;2022-07-11T06:40:56;17.20;99.90
35960;DHT22;22043;50.970;7.192;2022-07-11T06:43:22;17.10;99.90
35960;DHT22;22043;50.970;7.192;2022-07-11T06:45:49;17.10;99.90
35960;DHT22;22043;50.970;7.192;2022-07-11T06:48:15;17.10;99.90
35960;DHT22;22043;50.970;7.192;2022-07-11T06:50:41;17.10;99.90
35960;DHT22;22043;50.970;7.192;2022-07-11T06:53:06;17.10;99.90
35960;DHT22;22043;50.970;7.192;2022-07-11T06:55:33;17.10;99.90
35960;DHT22;22043;50.970;7.192;2022-07-11T06:57:59;17.00;99.90
35960;DHT22;22043;50.970;7.192;2022-07-11T07:00:25;17.00;99.90
35960;DHT22;22043;50.970;7.192;2022-07-11T07:02:54;17.00;99.90
35960;DHT22;22043;50.970;7.192;2022-07-11T07:05:20;17.00;99.90
35960;DHT22;22043;50.970;7.192;2022-07-11T07:07:45;17.00;99.90
35960;DHT22;22043;50.970;7.192;2022-07-11T07:10:11;17.00;99.90
35960;DHT22;22043;50.970;7.192;2022-07-11T07:12:38;17.00;99.90
35960;DHT22;22043;50.970;7.192;2022-07-11T07:15:05;17.00;99.90
35960;DHT22;22043;50.970;7.192;2022-07-11T07:17:31;17.00;99.90
35960;DHT22;22043;50.970;7.192;2022-07-11T07:19:57;17.10;99.90
35960;DHT22;22043;50.970;7.192;2022-07-11T07:22:23;17.10;99.90
35960;DHT22;22043;50.970;7.192;2022-07-11T07:24:48;17.10;99.90
35960;DHT22;22043;50.970;7.192;2022-07-11T07:27:14;17.00;99.90
35960;DHT22;22043;50.970;7.192;2022-07-11T07:29:40;17.10;99.90
35960;DHT22;22043;50.970;7.192;2022-07-11T07:32:06;17.10;99.90
35960;DHT22;22043;50.970;7.192;2022-07-11T07:34:33;17.10;99.90
35960;DHT22;22043;50.970;7.192;2022-07-11T07:36:59;17.00;99.90
35960;DHT22;22043;50.970;7.192;2022-07-11T07:39:25;17.10;99.90
35960;DHT22;22043;50.970;7.192;2022-07-11T07:41:51;17.00;99.90
35960;DHT22;22043;50.970;7.192;2022-07-11T07:44:17;17.00;99.90
35960;DHT22;22043;50.970;7.192;2022-07-11T07:46:42;16.90;99.90
35960;DHT22;22043;50.970;7.192;2022-07-11T07:49:08;16.90;99.90
35960;DHT22;22043;50.970;7.192;2022-07-11T07:51:34;16.90;99.90
35960;DHT22;22043;50.970;7.192;2022-07-11T07:53:59;16.90;99.90
35960;DHT22;22043;50.970;7.192;2022-07-11T07:56:25;16.90;99.90
35960;DHT22;22043;50.970;7.192;2022-07-11T07:58:51;16.90;99.90
35960;DHT22;22043;50.970;7.192;2022-07-11T08:01:18;17.00;99.90
35960;DHT22;22043;50.970;7.192;2022-07-11T08:04:06;17.10;99.90
35960;DHT22;22043;50.970;7.192;2022-07-11T08:06:32;17.20;99.90
35960;DHT22;22043;50.970;7.192;2022-07-11T08:08:58;17.30;99.90
35960;DHT22;22043;50.970;7.192;2022-07-11T08:11:25;17.30;99.90
35960;DHT22;22043;50.970;7.192;2022-07-11T08:13:51;17.40;99.90
35960;DHT22;22043;50.970;7.192;2022-07-11T08:16:17;17.50;99.90
35960;DHT22;22043;50.970;7.192;2022-07-11T08:18:42;17.60;99.90
35960;DHT22;22043;50.970;7.192;2022-07-11T08:21:08;17.60;99.90
35960;DHT22;22043;50.970;7.192;2022-07-11T08:23:35;17.70;99.90
35960;DHT22;22043;50.970;7.192;2022-07-11T08:26:01;17.80;99.90
35960;DHT22;22043;50.970;7.192;2022-07-11T08:28:26;17.90;99.90
35960;DHT22;22043;50.970;7.192;2022-07-11T08:30:52;18.00;99.90
35960;DHT22;22043;50.970;7.192;2022-07-11T08:33:18;18.00;99.90
35960;DHT22;22043;50.970;7.192;2022-07-11T08:35:43;18.10;99.90
35960;DHT22;22043;50.970;7.192;2022-07-11T08:38:09;18.10;99.90
35960;DHT22;22043;50.970;7.192;2022-07-11T08:40:35;18.10;99.90
35960;DHT22;22043;50.970;7.192;2022-07-11T08:43:02;18.20;99.90
35960;DHT22;22043;50.970;7.192;2022-07-11T08:45:31;18.20;99.90
35960;DHT22;22043;50.970;7.192;2022-07-11T08:47:57;18.20;99.90
35960;DHT22;22043;50.970;7.192;2022-07-11T08:50:25;18.20;99.90
35960;DHT22;22043;50.970;7.192;2022-07-11T08:52:57;18.20;99.90
35960;DHT22;22043;50.970;7.192;2022-07-11T08:55:23;18.20;99.90
35960;DHT22;22043;50.970;7.192;2022-07-11T08:57:50;18.20;99.90
35960;DHT22;22043;50.970;7.192;2022-07-11T09:00:16;18.20;99.90
35960;DHT22;22043;50.970;7.192;2022-07-11T09:02:43;18.20;99.90
35960;DHT22;22043;50.970;7.192;2022-07-11T09:05:10;18.20;99.90
35960;DHT22;22043;50.970;7.192;2022-07-11T09:07:49;18.20;99.90
35960;DHT22;22043;50.970;7.192;2022-07-11T09:10:16;18.20;99.90
35960;DHT22;22043;50.970;7.192;2022-07-11T09:12:59;18.30;99.90
35960;DHT22;22043;50.970;7.192;2022-07-11T09:15:31;18.20;99.90
35960;DHT22;22043;50.970;7.192;2022-07-11T09:17:57;18.20;99.90
35960;DHT22;22043;50.970;7.192;2022-07-11T09:20:23;18.20;99.90
35960;DHT22;22043;50.970;7.192;2022-07-11T09:22:49;18.20;99.90
35960;DHT22;22043;50.970;7.192;2022-07-11T09:25:41;18.10;99.90
35960;DHT22;22043;50.970;7.192;2022-07-11T09:28:07;18.10;99.90
35960;DHT22;22043;50.970;7.192;2022-07-11T09:30:38;18.10;99.90
35960;DHT22;22043;50.970;7.192;2022-07-11T09:33:10;18.20;99.90
35960;DHT22;22043;50.970;7.192;2022-07-11T09:35:45;18.30;99.90
35960;DHT22;22043;50.970;7.192;2022-07-11T09:38:13;18.40;99.90
35960;DHT22;22043;50.970;7.192;2022-07-11T09:40:43;18.50;99.90
35960;DHT22;22043;50.970;7.192;2022-07-11T09:43:09;18.50;99.90
35960;DHT22;22043;50.970;7.192;2022-07-11T09:45:35;18.40;99.90
35960;DHT22;22043;50.970;7.192;2022-07-11T09:48:11;18.40;99.90
35960;DHT22;22043;50.970;7.192;2022-07-11T09:50:38;18.40;99.90
35960;DHT22;22043;50.970;7.192;2022-07-11T09:53:12;18.40;99.90
35960;DHT22;22043;50.970;7.192;2022-07-11T09:55:45;18.40;99.90
35960;DHT22;22043;50.970;7.192;2022-07-11T09:58:13;18.30;99.90
35960;DHT22;22043;50.970;7.192;2022-07-11T10:00:40;18.30;99.90
35960;DHT22;22043;50.970;7.192;2022-07-11T10:03:07;18.40;99.90
35960;DHT22;22043;50.970;7.192;2022-07-11T10:05:33;18.40;99.90
35960;DHT22;22043;50.970;7.192;2022-07-11T10:08:00;18.40;99.90
35960;DHT22;22043;50.970;7.192;2022-07-11T10:10:27;18.40;99.90
35960;DHT22;22043;50.970;7.192;2022-07-11T10:12:53;18.40;99.90
35960;DHT22;22043;50.970;7.192;2022-07-11T10:15:23;18.40;99.90
35960;DHT22;22043;50.970;7.192;2022-07-11T10:28:57;18.50;99.90
35960;DHT22;22043;50.970;7.192;2022-07-11T10:31:25;18.50;99.90
35960;DHT22;22043;50.970;7.192;2022-07-11T10:34:10;18.50;99.90
35960;DHT22;22043;50.970;7.192;2022-07-11T10:36:41;18.60;99.90
35960;DHT22;22043;50.970;7.192;2022-07-11T10:39:20;18.60;99.90
35960;DHT22;22043;50.970;7.192;2022-07-11T10:41:57;18.60;99.90
35960;DHT22;22043;50.970;7.192;2022-07-11T10:44:23;18.60;99.90
35960;DHT22;22043;50.970;7.192;2022-07-11T10:46:50;18.60;99.90
35960;DHT22;22043;50.970;7.192;2022-07-11T10:49:43;18.70;99.90
35960;DHT22;22043;50.970;7.192;2022-07-11T10:52:07;18.70;99.90
35960;DHT22;22043;50.970;7.192;2022-07-11T11:00:11;18.80;99.90
35960;DHT22;22043;50.970;7.192;2022-07-11T11:11:01;18.60;99.90
35960;DHT22;22043;50.970;7.192;2022-07-11T11:13:28;18.60;99.90
35960;DHT22;22043;50.970;7.192;2022-07-11T11:15:58;18.50;99.90
35960;DHT22;22043;50.970;7.192;2022-07-11T11:23:43;18.70;99.90
35960;DHT22;22043;50.970;7.192;2022-07-11T11:31:20;18.90;99.90
35960;DHT22;22043;50.970;7.192;2022-07-11T11:33:47;18.90;99.90
35960;DHT22;22043;50.970;7.192;2022-07-11T11:36:16;18.80;99.90
35960;DHT22;22043;50.970;7.192;2022-07-11T11:38:43;18.80;99.90
35960;DHT22;22043;50.970;7.192;2022-07-11T11:41:08;18.90;99.90
35960;DHT22;22043;50.970;7.192;2022-07-11T11:43:36;18.80;99.90
35960;DHT22;22043;50.970;7.192;2022-07-11T11:46:02;18.90;99.90
35960;DHT22;22043;50.970;7.192;2022-07-11T11:48:36;18.80;99.90
35960;DHT22;22043;50.970;7.192;2022-07-11T11:51:13;18.90;99.90
35960;DHT22;22043;50.970;7.192;2022-07-11T11:53:48;19.00;99.90
35960;DHT22;22043;50.970;7.192;2022-07-11T11:58:51;19.10;99.90
35960;DHT22;22043;50.970;7.192;2022-07-11T12:01:24;19.20;99.90
35960;DHT22;22043;50.970;7.192;2022-07-11T12:06:33;19.40;99.90
35960;DHT22;22043;50.970;7.192;2022-07-11T12:11:29;19.50;99.90
35960;DHT22;22043;50.970;7.192;2022-07-11T12:13:59;19.50;99.90
35960;DHT22;22043;50.970;7.192;2022-07-11T12:16:26;19.40;99.90
35960;DHT22;22043;50.970;7.192;2022-07-11T12:19:15;19.40;99.90
35960;DHT22;22043;50.970;7.192;2022-07-11T12:21:44;19.30;99.90
35960;DHT22;22043;50.970;7.192;2022-07-11T12:24:16;19.30;99.90
35960;DHT22;22043;50.970;7.192;2022-07-11T12:26:42;19.30;99.90
35960;DHT22;22043;50.970;7.192;2022-07-11T12:29:16;19.30;99.90
35960;DHT22;22043;50.970;7.192;2022-07-11T12:31:53;19.20;99.90
35960;DHT22;22043;50.970;7.192;2022-07-11T12:34:22;19.30;99.90
35960;DHT22;22043;50.970;7.192;2022-07-11T12:36:49;19.40;99.90
35960;DHT22;22043;50.970;7.192;2022-07-11T12:39:27;19.40;99.90
35960;DHT22;22043;50.970;7.192;2022-07-11T12:41:56;19.50;99.90
35960;DHT22;22043;50.970;7.192;2022-07-11T12:44:22;19.60;99.90
35960;DHT22;22043;50.970;7.192;2022-07-11T12:47:07;19.60;99.90
35960;DHT22;22043;50.970;7.192;2022-07-11T12:49:33;19.60;99.90
35960;DHT22;22043;50.970;7.192;2022-07-11T12:51:58;19.60;99.90
35960;DHT22;22043;50.970;7.192;2022-07-11T12:54:30;19.60;99.90
35960;DHT22;22043;50.970;7.192;2022-07-11T12:56:57;19.50;99.90
35960;DHT22;22043;50.970;7.192;2022-07-11T12:59:24;19.50;99.90
35960;DHT22;22043;50.970;7.192;2022-07-11T13:02:10;19.40;99.90
35960;DHT22;22043;50.970;7.192;2022-07-11T13:10:09;19.40;99.90
35960;DHT22;22043;50.970;7.192;2022-07-11T13:12:36;19.50;99.90
35960;DHT22;22043;50.970;7.192;2022-07-11T13:15:04;19.60;99.90
35960;DHT22;22043;50.970;7.192;2022-07-11T13:17:42;19.70;99.90
35960;DHT22;22043;50.970;7.192;2022-07-11T13:20:10;19.80;99.90
35960;DHT22;22043;50.970;7.192;2022-07-11T13:22:38;19.80;99.90
35960;DHT22;22043;50.970;7.192;2022-07-11T13:25:05;19.80;99.90
35960;DHT22;22043;50.970;7.192;2022-07-11T13:27:30;19.80;99.90
35960;DHT22;22043;50.970;7.192;2022-07-11T13:29:56;19.80;99.90
35960;DHT22;22043;50.970;7.192;2022-07-11T13:32:23;19.80;99.90
35960;DHT22;22043;50.970;7.192;2022-07-11T13:34:48;19.80;99.90
35960;DHT22;22043;50.970;7.192;2022-07-11T13:37:15;19.90;99.90
35960;DHT22;22043;50.970;7.192;2022-07-11T13:39:41;20.00;99.90
35960;DHT22;22043;50.970;7.192;2022-07-11T13:42:07;20.00;99.90
35960;DHT22;22043;50.970;7.192;2022-07-11T13:44:33;20.10;99.90
35960;DHT22;22043;50.970;7.192;2022-07-11T13:46:58;20.10;99.90
35960;DHT22;22043;50.970;7.192;2022-07-11T13:49:24;20.20;99.90
35960;DHT22;22043;50.970;7.192;2022-07-11T13:51:50;20.30;99.90
35960;DHT22;22043;50.970;7.192;2022-07-11T13:54:16;20.30;99.90
35960;DHT22;22043;50.970;7.192;2022-07-11T13:56:43;20.40;99.90
35960;DHT22;22043;50.970;7.192;2022-07-11T13:59:08;20.30;99.90
35960;DHT22;22043;50.970;7.192;2022-07-11T14:01:34;20.20;99.90
35960;DHT22;22043;50.970;7.192;2022-07-11T14:04:00;20.20;99.90
35960;DHT22;22043;50.970;7.192;2022-07-11T14:06:25;20.20;99.90
35960;DHT22;22043;50.970;7.192;2022-07-11T14:08:51;20.20;99.90
35960;DHT22;22043;50.970;7.192;2022-07-11T14:11:16;20.20;99.90
35960;DHT22;22043;50.970;7.192;2022-07-11T14:13:42;20.20;99.90
35960;DHT22;22043;50.970;7.192;2022-07-11T14:16:08;20.30;99.90
35960;DHT22;22043;50.970;7.192;2022-07-11T14:18:33;20.30;99.90
35960;DHT22;22043;50.970;7.192;2022-07-11T14:20:59;20.40;99.90
35960;DHT22;22043;50.970;7.192;2022-07-11T14:23:25;20.40;99.90
35960;DHT22;22043;50.970;7.192;2022-07-11T14:25:51;20.40;99.90
35960;DHT22;22043;50.970;7.192;2022-07-11T14:28:17;20.40;99.90
35960;DHT22;22043;50.970;7.192;2022-07-11T14:30:44;20.40;99.90
35960;DHT22;22043;50.970;7.192;2022-07-11T14:33:09;20.50;99.90
35960;DHT22;22043;50.970;7.192;2022-07-11T14:35:35;20.50;99.90
35960;DHT22;22043;50.970;7.192;2022-07-11T14:38:01;20.50;99.90
35960;DHT22;22043;50.970;7.192;2022-07-11T14:40:27;20.50;99.90
35960;DHT22;22043;50.970;7.192;2022-07-11T14:42:53;20.50;99.90
35960;DHT22;22043;50.970;7.192;2022-07-11T14:45:18;20.50;99.90
35960;DHT22;22043;50.970;7.192;2022-07-11T14:47:44;20.50;99.90
35960;DHT22;22043;50.970;7.192;2022-07-11T14:50:10;20.40;99.90
35960;DHT22;22043;50.970;7.192;2022-07-11T14:52:37;20.40;99.90
35960;DHT22;22043;50.970;7.192;2022-07-11T14:55:03;20.40;99.90
35960;DHT22;22043;50.970;7.192;2022-07-11T14:57:29;20.40;99.90
35960;DHT22;22043;50.970;7.192;2022-07-11T14:59:55;20.40;99.90
35960;DHT22;22043;50.970;7.192;2022-07-11T15:02:21;20.30;99.90
35960;DHT22;22043;50.970;7.192;2022-07-11T15:05:05;20.20;99.90
35960;DHT22;22043;50.970;7.192;2022-07-11T15:07:31;20.20;99.90
35960;DHT22;22043;50.970;7.192;2022-07-11T15:10:15;20.20;99.90
35960;DHT22;22043;50.970;7.192;2022-07-11T15:12:59;20.20;99.90
35960;DHT22;22043;50.970;7.192;2022-07-11T15:15:25;20.10;99.90
35960;DHT22;22043;50.970;7.192;2022-07-11T15:17:51;20.10;99.90
35960;DHT22;22043;50.970;7.192;2022-07-11T15:20:16;20.10;99.90
35960;DHT22;22043;50.970;7.192;2022-07-11T15:22:42;20.10;99.90
35960;DHT22;22043;50.970;7.192;2022-07-11T15:25:08;20.10;99.90
35960;DHT22;22043;50.970;7.192;2022-07-11T15:27:33;20.10;99.90
35960;DHT22;22043;50.970;7.192;2022-07-11T15:29:59;20.10;99.90
35960;DHT22;22043;50.970;7.192;2022-07-11T15:32:25;20.20;99.90
35960;DHT22;22043;50.970;7.192;2022-07-11T15:34:52;20.20;99.90
35960;DHT22;22043;50.970;7.192;2022-07-11T15:37:18;20.30;99.90
35960;DHT22;22043;50.970;7.192;2022-07-11T15:39:44;20.30;99.90
35960;DHT22;22043;50.970;7.192;2022-07-11T15:42:10;20.30;99.90
35960;DHT22;22043;50.970;7.192;2022-07-11T15:44:35;20.30;99.90
35960;DHT22;22043;50.970;7.192;2022-07-11T15:47:01;20.30;99.90
35960;DHT22;22043;50.970;7.192;2022-07-11T15:49:27;20.20;99.90
35960;DHT22;22043;50.970;7.192;2022-07-11T15:51:53;20.20;99.90
35960;DHT22;22043;50.970;7.192;2022-07-11T15:54:19;20.20;99.90
35960;DHT22;22043;50.970;7.192;2022-07-11T15:56:45;20.20;99.90
35960;DHT22;22043;50.970;7.192;2022-07-11T15:59:12;20.20;99.90
35960;DHT22;22043;50.970;7.192;2022-07-11T16:01:37;20.30;99.90
35960;DHT22;22043;50.970;7.192;2022-07-11T16:04:04;20.30;99.90
35960;DHT22;22043;50.970;7.192;2022-07-11T16:06:31;20.30;99.90
35960;DHT22;22043;50.970;7.192;2022-07-11T16:08:59;20.30;99.90
35960;DHT22;22043;50.970;7.192;2022-07-11T16:11:25;20.20;99.90
35960;DHT22;22043;50.970;7.192;2022-07-11T16:13:51;20.20;99.90
35960;DHT22;22043;50.970;7.192;2022-07-11T16:16:20;20.10;99.90
35960;DHT22;22043;50.970;7.192;2022-07-11T16:18:46;20.00;99.90